메인 페이지
METAR-TAF:

METAR-TAF

공항 :

소치 국제공항

소치, 러시아

위도: 43-26N, 경도: 039-54E, 고도: 16m

현재 날씨관측

예보는 43분 전, 15:30시(UTC)에 발표되었습니다.
북동6kt
온도 14°C
습도 88%
기압 1025 hPa
시정 10km 이상
고도 3000ft 상공 구름 조금

METAR: URSS 211530Z 05003MPS 9999 FEW030 14/12 Q1025 R02/010070 R06/010070 NOSIG RMK R06/08002MPS MT OBSC QFE768

시각: 20:13 (16:13 UTC)

예보

예보는 2 시간 17분 전, 13:56시(UTC)에 발표되었습니다.
예보 대상 시간: 21일 15시부터 22일 15시까지 (UTC)
남동6kt, 순간 최대 풍속 16kt
시정 10km 이상
고도 3000ft 상공 구름 조금
전환 중
21일 16시부터 21일 18시까지 (UTC)
북동8kt, 순간 최대 풍속 17kt
전환 중
21일 21시부터 21일 23시까지 (UTC)
북동14kt
전환 중
22일 07시부터 22일 08시까지 (UTC)
서남서6kt, 순간 최대 풍속 16kt
고도 10000ft 상공 구름 보통
전환 중
22일 09시부터 22일 11시까지 (UTC)
8kt, 순간 최대 풍속 17kt
고도 4000ft 상공 구름 조금
고도 10000ft 상공 구름 보통

TAF: URSS 211356Z 2115/2215 13003G08MPS 9999 FEW030 BECMG 2116/2118 05004G09MPS NSC BECMG 2121/2123 04007MPS BECMG 2207/2208 25003G08MPS SCT100 BECMG 2209/2211 28004G09MPS FEW040 SCT100

4,000개 이상의 공항 관측 자료 및 예보 (METAR 및 TAF 보고).

지도상에서 검색 가능한 기상관측소가 노란 점과 빨간 점으로 표시되어 있습니다.

기상관측소 명을 보려면 표시 위로 마우스를 이동하세요.

날씨 관측과 예보를 보려면 클릭하세요.

지도 변경 : 확대하려면 엑스 표시가 있는 녹색 버튼, 축소하려면 빼기 표시가 있는 녹색 버튼, 다음 페이지의 지도를 보려면 녹색 화살표를 클릭하세요.


METAR-TAF: